sensor_id;sensor_type;location;lat;lon;timestamp;temperature;humidity
47336;DHT22;33068;51.990;5.926;2023-04-01T00:01:43;9.70;99.90
47336;DHT22;33068;51.990;5.926;2023-04-01T00:04:10;9.60;99.90
47336;DHT22;33068;51.990;5.926;2023-04-01T00:06:39;9.70;99.90
47336;DHT22;33068;51.990;5.926;2023-04-01T00:09:06;9.60;99.90
47336;DHT22;33068;51.990;5.926;2023-04-01T00:11:33;9.60;99.90
47336;DHT22;33068;51.990;5.926;2023-04-01T00:14:00;9.60;99.90
47336;DHT22;33068;51.990;5.926;2023-04-01T00:16:27;9.60;99.90
47336;DHT22;33068;51.990;5.926;2023-04-01T00:18:54;9.60;99.90
47336;DHT22;33068;51.990;5.926;2023-04-01T00:21:22;9.90;99.90
47336;DHT22;33068;51.990;5.926;2023-04-01T00:23:51;9.60;99.90
47336;DHT22;33068;51.990;5.926;2023-04-01T00:26:18;9.60;99.90
47336;DHT22;33068;51.990;5.926;2023-04-01T00:28:47;9.60;99.90
47336;DHT22;33068;51.990;5.926;2023-04-01T00:31:14;9.60;99.90
47336;DHT22;33068;51.990;5.926;2023-04-01T00:33:42;9.60;99.90
47336;DHT22;33068;51.990;5.926;2023-04-01T00:36:09;9.60;99.90
47336;DHT22;33068;51.990;5.926;2023-04-01T00:38:37;9.60;99.90
47336;DHT22;33068;51.990;5.926;2023-04-01T00:41:06;9.60;99.90
47336;DHT22;33068;51.990;5.926;2023-04-01T00:43:34;9.60;99.90
47336;DHT22;33068;51.990;5.926;2023-04-01T00:46:01;9.60;99.90
47336;DHT22;33068;51.990;5.926;2023-04-01T00:48:30;9.70;99.90
47336;DHT22;33068;51.990;5.926;2023-04-01T00:51:00;9.60;99.90
47336;DHT22;33068;51.990;5.926;2023-04-01T00:53:30;9.60;99.90
47336;DHT22;33068;51.990;5.926;2023-04-01T00:56:02;9.60;99.90
47336;DHT22;33068;51.990;5.926;2023-04-01T00:58:36;9.60;99.90
47336;DHT22;33068;51.990;5.926;2023-04-01T01:01:05;9.60;99.90
47336;DHT22;33068;51.990;5.926;2023-04-01T01:03:33;9.60;99.90
47336;DHT22;33068;51.990;5.926;2023-04-01T01:06:26;9.60;99.90
47336;DHT22;33068;51.990;5.926;2023-04-01T01:09:15;9.70;99.90
47336;DHT22;33068;51.990;5.926;2023-04-01T01:11:50;9.60;99.90
47336;DHT22;33068;51.990;5.926;2023-04-01T01:14:34;9.60;99.90
47336;DHT22;33068;51.990;5.926;2023-04-01T01:17:11;9.60;99.90
47336;DHT22;33068;51.990;5.926;2023-04-01T01:19:57;9.60;99.90
47336;DHT22;33068;51.990;5.926;2023-04-01T01:22:43;9.70;99.90
47336;DHT22;33068;51.990;5.926;2023-04-01T01:25:29;9.70;99.90
47336;DHT22;33068;51.990;5.926;2023-04-01T01:28:15;9.70;99.90
47336;DHT22;33068;51.990;5.926;2023-04-01T01:30:52;9.60;99.90
47336;DHT22;33068;51.990;5.926;2023-04-01T01:33:34;9.70;99.90
47336;DHT22;33068;51.990;5.926;2023-04-01T01:36:06;9.70;99.90
47336;DHT22;33068;51.990;5.926;2023-04-01T01:38:36;9.70;99.90
47336;DHT22;33068;51.990;5.926;2023-04-01T01:41:06;9.70;99.90
47336;DHT22;33068;51.990;5.926;2023-04-01T01:43:38;9.70;99.90
47336;DHT22;33068;51.990;5.926;2023-04-01T01:46:09;9.70;99.90
47336;DHT22;33068;51.990;5.926;2023-04-01T01:48:39;9.70;99.90
47336;DHT22;33068;51.990;5.926;2023-04-01T01:51:08;9.70;99.90
47336;DHT22;33068;51.990;5.926;2023-04-01T01:53:35;9.70;99.90
47336;DHT22;33068;51.990;5.926;2023-04-01T01:56:03;9.70;99.90
47336;DHT22;33068;51.990;5.926;2023-04-01T01:58:37;9.70;99.90
47336;DHT22;33068;51.990;5.926;2023-04-01T02:01:11;9.70;99.90
47336;DHT22;33068;51.990;5.926;2023-04-01T02:03:41;9.70;99.90
47336;DHT22;33068;51.990;5.926;2023-04-01T02:06:13;9.70;99.90
47336;DHT22;33068;51.990;5.926;2023-04-01T02:08:45;9.70;99.90
47336;DHT22;33068;51.990;5.926;2023-04-01T02:11:17;9.60;99.90
47336;DHT22;33068;51.990;5.926;2023-04-01T02:13:51;9.80;99.90
47336;DHT22;33068;51.990;5.926;2023-04-01T02:16:21;9.70;99.90
47336;DHT22;33068;51.990;5.926;2023-04-01T02:18:50;9.60;99.90
47336;DHT22;33068;51.990;5.926;2023-04-01T02:21:22;9.60;99.90
47336;DHT22;33068;51.990;5.926;2023-04-01T02:23:52;9.60;99.90
47336;DHT22;33068;51.990;5.926;2023-04-01T02:26:20;9.60;99.90
47336;DHT22;33068;51.990;5.926;2023-04-01T02:28:49;9.50;99.90
47336;DHT22;33068;51.990;5.926;2023-04-01T02:31:17;9.50;99.90
47336;DHT22;33068;51.990;5.926;2023-04-01T02:33:46;9.50;99.90
47336;DHT22;33068;51.990;5.926;2023-04-01T02:36:14;9.50;99.90
47336;DHT22;33068;51.990;5.926;2023-04-01T02:38:44;9.50;99.90
47336;DHT22;33068;51.990;5.926;2023-04-01T02:41:12;9.50;99.90
47336;DHT22;33068;51.990;5.926;2023-04-01T02:43:39;9.50;99.90
47336;DHT22;33068;51.990;5.926;2023-04-01T02:46:06;9.60;99.90
47336;DHT22;33068;51.990;5.926;2023-04-01T02:48:34;9.50;99.90
47336;DHT22;33068;51.990;5.926;2023-04-01T02:51:01;9.50;99.90
47336;DHT22;33068;51.990;5.926;2023-04-01T02:53:28;9.40;99.90
47336;DHT22;33068;51.990;5.926;2023-04-01T02:55:56;9.50;99.90
47336;DHT22;33068;51.990;5.926;2023-04-01T02:58:23;9.50;99.90
47336;DHT22;33068;51.990;5.926;2023-04-01T03:00:50;9.50;99.90
47336;DHT22;33068;51.990;5.926;2023-04-01T03:03:17;9.50;99.90
47336;DHT22;33068;51.990;5.926;2023-04-01T03:05:45;9.50;99.90
47336;DHT22;33068;51.990;5.926;2023-04-01T03:08:12;9.40;99.90
47336;DHT22;33068;51.990;5.926;2023-04-01T03:10:39;9.50;99.90
47336;DHT22;33068;51.990;5.926;2023-04-01T03:13:08;9.60;99.90
47336;DHT22;33068;51.990;5.926;2023-04-01T03:15:35;9.50;99.90
47336;DHT22;33068;51.990;5.926;2023-04-01T03:18:02;9.40;99.90
47336;DHT22;33068;51.990;5.926;2023-04-01T03:20:29;9.40;99.90
47336;DHT22;33068;51.990;5.926;2023-04-01T03:22:56;9.40;99.90
47336;DHT22;33068;51.990;5.926;2023-04-01T03:25:24;9.40;99.90
47336;DHT22;33068;51.990;5.926;2023-04-01T03:27:51;9.40;99.90
47336;DHT22;33068;51.990;5.926;2023-04-01T03:30:20;9.40;99.90
47336;DHT22;33068;51.990;5.926;2023-04-01T03:32:50;9.40;99.90
47336;DHT22;33068;51.990;5.926;2023-04-01T03:35:17;9.40;99.90
47336;DHT22;33068;51.990;5.926;2023-04-01T03:37:45;9.40;99.90
47336;DHT22;33068;51.990;5.926;2023-04-01T03:40:12;9.30;99.90
47336;DHT22;33068;51.990;5.926;2023-04-01T03:42:39;9.40;99.90
47336;DHT22;33068;51.990;5.926;2023-04-01T03:45:07;9.30;99.90
47336;DHT22;33068;51.990;5.926;2023-04-01T03:47:36;9.30;99.90
47336;DHT22;33068;51.990;5.926;2023-04-01T03:50:06;9.30;99.90
47336;DHT22;33068;51.990;5.926;2023-04-01T03:52:33;9.30;99.90
47336;DHT22;33068;51.990;5.926;2023-04-01T03:55:00;9.40;99.90
47336;DHT22;33068;51.990;5.926;2023-04-01T03:57:30;9.30;99.90
47336;DHT22;33068;51.990;5.926;2023-04-01T04:00:01;9.30;99.90
47336;DHT22;33068;51.990;5.926;2023-04-01T04:02:40;9.30;99.90
47336;DHT22;33068;51.990;5.926;2023-04-01T04:05:09;9.30;99.90
47336;DHT22;33068;51.990;5.926;2023-04-01T04:07:38;9.20;99.90
47336;DHT22;33068;51.990;5.926;2023-04-01T04:10:08;9.30;99.90
47336;DHT22;33068;51.990;5.926;2023-04-01T04:12:35;9.30;99.90
47336;DHT22;33068;51.990;5.926;2023-04-01T04:15:02;9.30;99.90
47336;DHT22;33068;51.990;5.926;2023-04-01T04:17:30;9.30;99.90
47336;DHT22;33068;51.990;5.926;2023-04-01T04:19:58;9.20;99.90
47336;DHT22;33068;51.990;5.926;2023-04-01T04:22:26;9.20;99.90
47336;DHT22;33068;51.990;5.926;2023-04-01T04:24:53;9.20;99.90
47336;DHT22;33068;51.990;5.926;2023-04-01T04:27:21;9.20;99.90
47336;DHT22;33068;51.990;5.926;2023-04-01T04:29:57;9.20;99.90
47336;DHT22;33068;51.990;5.926;2023-04-01T04:32:24;9.30;99.90
47336;DHT22;33068;51.990;5.926;2023-04-01T04:34:52;9.20;99.90
47336;DHT22;33068;51.990;5.926;2023-04-01T04:37:20;8.90;99.90
47336;DHT22;33068;51.990;5.926;2023-04-01T04:39:47;9.20;99.90
47336;DHT22;33068;51.990;5.926;2023-04-01T04:42:14;9.10;99.90
47336;DHT22;33068;51.990;5.926;2023-04-01T04:44:41;9.10;99.90
47336;DHT22;33068;51.990;5.926;2023-04-01T04:47:08;9.20;99.90
47336;DHT22;33068;51.990;5.926;2023-04-01T04:49:36;9.20;99.90
47336;DHT22;33068;51.990;5.926;2023-04-01T04:52:07;9.20;99.90
47336;DHT22;33068;51.990;5.926;2023-04-01T04:54:36;9.20;99.90
47336;DHT22;33068;51.990;5.926;2023-04-01T04:57:03;9.20;99.90
47336;DHT22;33068;51.990;5.926;2023-04-01T04:59:36;9.30;99.90
47336;DHT22;33068;51.990;5.926;2023-04-01T05:02:08;9.20;99.90
47336;DHT22;33068;51.990;5.926;2023-04-01T05:04:36;9.20;99.90
47336;DHT22;33068;51.990;5.926;2023-04-01T05:07:05;9.20;99.90
47336;DHT22;33068;51.990;5.926;2023-04-01T05:09:35;9.20;99.90
47336;DHT22;33068;51.990;5.926;2023-04-01T05:12:04;9.20;99.90
47336;DHT22;33068;51.990;5.926;2023-04-01T05:14:50;9.20;99.90
47336;DHT22;33068;51.990;5.926;2023-04-01T05:17:17;9.30;99.90
47336;DHT22;33068;51.990;5.926;2023-04-01T05:19:44;9.20;99.90
47336;DHT22;33068;51.990;5.926;2023-04-01T05:22:11;9.20;99.90
47336;DHT22;33068;51.990;5.926;2023-04-01T05:24:38;9.30;99.90
47336;DHT22;33068;51.990;5.926;2023-04-01T05:27:07;9.20;99.90
47336;DHT22;33068;51.990;5.926;2023-04-01T05:29:37;9.30;99.90
47336;DHT22;33068;51.990;5.926;2023-04-01T05:32:10;9.30;99.90
47336;DHT22;33068;51.990;5.926;2023-04-01T05:34:37;9.30;99.90
47336;DHT22;33068;51.990;5.926;2023-04-01T05:37:04;9.30;99.90
47336;DHT22;33068;51.990;5.926;2023-04-01T05:39:36;9.30;99.90
47336;DHT22;33068;51.990;5.926;2023-04-01T05:42:06;9.30;99.90
47336;DHT22;33068;51.990;5.926;2023-04-01T05:44:34;9.40;99.90
47336;DHT22;33068;51.990;5.926;2023-04-01T05:47:01;9.30;99.90
47336;DHT22;33068;51.990;5.926;2023-04-01T05:49:28;9.60;99.90
47336;DHT22;33068;51.990;5.926;2023-04-01T05:51:55;9.20;99.90
47336;DHT22;33068;51.990;5.926;2023-04-01T05:54:22;9.40;99.90
47336;DHT22;33068;51.990;5.926;2023-04-01T05:56:50;9.40;99.90
47336;DHT22;33068;51.990;5.926;2023-04-01T05:59:19;9.30;99.90
47336;DHT22;33068;51.990;5.926;2023-04-01T06:01:46;9.40;99.90
47336;DHT22;33068;51.990;5.926;2023-04-01T06:04:15;9.40;99.90
47336;DHT22;33068;51.990;5.926;2023-04-01T06:06:43;9.40;99.90
47336;DHT22;33068;51.990;5.926;2023-04-01T06:09:34;9.40;99.90
47336;DHT22;33068;51.990;5.926;2023-04-01T06:12:17;9.40;99.90
47336;DHT22;33068;51.990;5.926;2023-04-01T06:15:03;9.50;99.90
47336;DHT22;33068;51.990;5.926;2023-04-01T06:17:43;9.50;99.90
47336;DHT22;33068;51.990;5.926;2023-04-01T06:20:18;9.50;99.90
47336;DHT22;33068;51.990;5.926;2023-04-01T06:23:05;9.60;99.90
47336;DHT22;33068;51.990;5.926;2023-04-01T06:25:43;9.50;99.90
47336;DHT22;33068;51.990;5.926;2023-04-01T06:28:35;9.50;99.90
47336;DHT22;33068;51.990;5.926;2023-04-01T06:31:20;9.50;99.90
47336;DHT22;33068;51.990;5.926;2023-04-01T06:34:08;9.60;99.90
47336;DHT22;33068;51.990;5.926;2023-04-01T06:40:01;9.70;99.90
47336;DHT22;33068;51.990;5.926;2023-04-01T06:42:45;9.70;99.90
47336;DHT22;33068;51.990;5.926;2023-04-01T06:45:41;9.70;99.90
47336;DHT22;33068;51.990;5.926;2023-04-01T06:48:40;9.80;99.90
47336;DHT22;33068;51.990;5.926;2023-04-01T06:51:36;9.90;99.90
47336;DHT22;33068;51.990;5.926;2023-04-01T06:54:39;9.90;99.90
47336;DHT22;33068;51.990;5.926;2023-04-01T06:57:41;9.90;99.90
47336;DHT22;33068;51.990;5.926;2023-04-01T07:00:14;9.90;99.90
47336;DHT22;33068;51.990;5.926;2023-04-01T07:02:47;9.90;99.90
47336;DHT22;33068;51.990;5.926;2023-04-01T07:05:21;9.90;99.90
47336;DHT22;33068;51.990;5.926;2023-04-01T07:07:53;9.90;99.90
47336;DHT22;33068;51.990;5.926;2023-04-01T07:10:28;9.90;99.90
47336;DHT22;33068;51.990;5.926;2023-04-01T07:13:36;10.00;99.90
47336;DHT22;33068;51.990;5.926;2023-04-01T07:16:18;10.00;99.90
47336;DHT22;33068;51.990;5.926;2023-04-01T07:18:50;10.00;99.90
47336;DHT22;33068;51.990;5.926;2023-04-01T07:21:30;10.10;99.90
47336;DHT22;33068;51.990;5.926;2023-04-01T07:24:06;10.10;99.90
47336;DHT22;33068;51.990;5.926;2023-04-01T07:26:42;10.20;99.90
47336;DHT22;33068;51.990;5.926;2023-04-01T07:29:13;10.20;99.90
47336;DHT22;33068;51.990;5.926;2023-04-01T07:35:05;10.40;99.90
47336;DHT22;33068;51.990;5.926;2023-04-01T07:37:42;10.40;99.90
47336;DHT22;33068;51.990;5.926;2023-04-01T07:40:21;10.50;99.90
47336;DHT22;33068;51.990;5.926;2023-04-01T07:46:02;10.50;99.90
47336;DHT22;33068;51.990;5.926;2023-04-01T07:48:35;10.50;99.90
47336;DHT22;33068;51.990;5.926;2023-04-01T07:51:11;10.60;99.90
47336;DHT22;33068;51.990;5.926;2023-04-01T07:53:47;10.60;99.90
47336;DHT22;33068;51.990;5.926;2023-04-01T07:56:18;10.80;99.90
47336;DHT22;33068;51.990;5.926;2023-04-01T07:58:55;10.90;99.90
47336;DHT22;33068;51.990;5.926;2023-04-01T08:01:49;10.90;99.90
47336;DHT22;33068;51.990;5.926;2023-04-01T08:04:39;10.90;99.90
47336;DHT22;33068;51.990;5.926;2023-04-01T08:07:15;11.00;99.90
47336;DHT22;33068;51.990;5.926;2023-04-01T08:10:11;11.00;99.90
47336;DHT22;33068;51.990;5.926;2023-04-01T08:13:05;11.10;99.90
47336;DHT22;33068;51.990;5.926;2023-04-01T08:16:09;11.20;99.90
47336;DHT22;33068;51.990;5.926;2023-04-01T08:18:54;11.30;99.90
47336;DHT22;33068;51.990;5.926;2023-04-01T08:21:28;11.40;99.90
47336;DHT22;33068;51.990;5.926;2023-04-01T08:23:57;11.30;99.90
47336;DHT22;33068;51.990;5.926;2023-04-01T08:26:32;11.40;99.90
47336;DHT22;33068;51.990;5.926;2023-04-01T08:29:05;11.40;99.90
47336;DHT22;33068;51.990;5.926;2023-04-01T08:31:37;11.50;99.90
47336;DHT22;33068;51.990;5.926;2023-04-01T08:34:08;11.40;99.90
47336;DHT22;33068;51.990;5.926;2023-04-01T08:36:39;11.50;99.90
47336;DHT22;33068;51.990;5.926;2023-04-01T08:39:17;11.60;99.90
47336;DHT22;33068;51.990;5.926;2023-04-01T08:42:07;11.60;99.90
47336;DHT22;33068;51.990;5.926;2023-04-01T08:45:21;11.60;99.90
47336;DHT22;33068;51.990;5.926;2023-04-01T08:48:16;11.50;99.90
47336;DHT22;33068;51.990;5.926;2023-04-01T08:54:27;11.50;99.90
47336;DHT22;33068;51.990;5.926;2023-04-01T08:57:04;11.40;99.90
47336;DHT22;33068;51.990;5.926;2023-04-01T09:00:11;11.40;99.90
47336;DHT22;33068;51.990;5.926;2023-04-01T09:03:41;11.40;99.90
47336;DHT22;33068;51.990;5.926;2023-04-01T09:06:25;11.30;99.90
47336;DHT22;33068;51.990;5.926;2023-04-01T09:09:19;11.40;99.90
47336;DHT22;33068;51.990;5.926;2023-04-01T09:15:13;11.60;99.90
47336;DHT22;33068;51.990;5.926;2023-04-01T09:17:57;11.60;99.90
47336;DHT22;33068;51.990;5.926;2023-04-01T09:20:52;11.70;99.90
47336;DHT22;33068;51.990;5.926;2023-04-01T09:23:38;11.70;99.90
47336;DHT22;33068;51.990;5.926;2023-04-01T09:26:29;11.70;99.90
47336;DHT22;33068;51.990;5.926;2023-04-01T09:29:10;11.60;99.90
47336;DHT22;33068;51.990;5.926;2023-04-01T09:32:03;11.70;99.90
47336;DHT22;33068;51.990;5.926;2023-04-01T09:34:54;11.70;99.90
47336;DHT22;33068;51.990;5.926;2023-04-01T09:37:36;11.70;99.90
47336;DHT22;33068;51.990;5.926;2023-04-01T09:40:16;11.80;99.90
47336;DHT22;33068;51.990;5.926;2023-04-01T09:43:02;11.80;99.90
47336;DHT22;33068;51.990;5.926;2023-04-01T09:45:44;11.70;99.90
47336;DHT22;33068;51.990;5.926;2023-04-01T09:48:31;11.80;99.90
47336;DHT22;33068;51.990;5.926;2023-04-01T09:51:08;11.80;99.90
47336;DHT22;33068;51.990;5.926;2023-04-01T09:53:49;11.70;99.90
47336;DHT22;33068;51.990;5.926;2023-04-01T09:56:58;11.70;99.90
47336;DHT22;33068;51.990;5.926;2023-04-01T09:59:49;11.50;99.90
47336;DHT22;33068;51.990;5.926;2023-04-01T10:03:13;11.50;99.90
47336;DHT22;33068;51.990;5.926;2023-04-01T10:06:18;11.40;99.90
47336;DHT22;33068;51.990;5.926;2023-04-01T10:09:11;11.40;99.90
47336;DHT22;33068;51.990;5.926;2023-04-01T10:12:19;11.30;99.90
47336;DHT22;33068;51.990;5.926;2023-04-01T10:15:25;11.30;99.90
47336;DHT22;33068;51.990;5.926;2023-04-01T10:18:11;11.30;99.90
47336;DHT22;33068;51.990;5.926;2023-04-01T10:24:21;11.30;99.90
47336;DHT22;33068;51.990;5.926;2023-04-01T10:27:15;11.30;99.90
47336;DHT22;33068;51.990;5.926;2023-04-01T10:30:48;11.30;99.90
47336;DHT22;33068;51.990;5.926;2023-04-01T10:33:45;11.40;99.90
47336;DHT22;33068;51.990;5.926;2023-04-01T10:36:53;11.50;99.90
47336;DHT22;33068;51.990;5.926;2023-04-01T10:40:13;11.50;99.90
47336;DHT22;33068;51.990;5.926;2023-04-01T10:43:40;11.60;99.90
47336;DHT22;33068;51.990;5.926;2023-04-01T10:46:49;11.70;99.90
47336;DHT22;33068;51.990;5.926;2023-04-01T10:49:43;11.90;99.90
47336;DHT22;33068;51.990;5.926;2023-04-01T10:52:54;12.10;99.90
47336;DHT22;33068;51.990;5.926;2023-04-01T10:55:48;12.10;99.90
47336;DHT22;33068;51.990;5.926;2023-04-01T10:59:11;12.10;99.90
47336;DHT22;33068;51.990;5.926;2023-04-01T11:02:29;12.00;99.90
47336;DHT22;33068;51.990;5.926;2023-04-01T11:15:26;12.20;99.90
47336;DHT22;33068;51.990;5.926;2023-04-01T11:21:42;12.30;99.90
47336;DHT22;33068;51.990;5.926;2023-04-01T11:24:27;12.30;99.90
47336;DHT22;33068;51.990;5.926;2023-04-01T11:27:28;12.30;99.90
47336;DHT22;33068;51.990;5.926;2023-04-01T11:30:24;12.20;99.90
47336;DHT22;33068;51.990;5.926;2023-04-01T11:32:55;11.90;99.90
47336;DHT22;33068;51.990;5.926;2023-04-01T11:35:54;11.70;99.90
47336;DHT22;33068;51.990;5.926;2023-04-01T11:38:43;11.60;99.90
47336;DHT22;33068;51.990;5.926;2023-04-01T11:41:32;11.60;99.90
47336;DHT22;33068;51.990;5.926;2023-04-01T11:44:46;11.60;99.90
47336;DHT22;33068;51.990;5.926;2023-04-01T11:47:51;11.50;99.90
47336;DHT22;33068;51.990;5.926;2023-04-01T11:50:28;11.40;99.90
47336;DHT22;33068;51.990;5.926;2023-04-01T11:53:15;11.40;99.90
47336;DHT22;33068;51.990;5.926;2023-04-01T11:56:02;11.40;99.90
47336;DHT22;33068;51.990;5.926;2023-04-01T11:59:02;11.50;99.90
47336;DHT22;33068;51.990;5.926;2023-04-01T12:01:45;11.30;99.90
47336;DHT22;33068;51.990;5.926;2023-04-01T12:04:36;11.30;99.90
47336;DHT22;33068;51.990;5.926;2023-04-01T12:07:16;11.30;99.90
47336;DHT22;33068;51.990;5.926;2023-04-01T12:09:52;11.30;99.90
47336;DHT22;33068;51.990;5.926;2023-04-01T12:12:30;11.20;99.90
47336;DHT22;33068;51.990;5.926;2023-04-01T12:15:12;11.10;99.90
47336;DHT22;33068;51.990;5.926;2023-04-01T12:17:46;11.10;99.90
47336;DHT22;33068;51.990;5.926;2023-04-01T12:20:25;11.10;99.90
47336;DHT22;33068;51.990;5.926;2023-04-01T12:22:59;11.00;99.90
47336;DHT22;33068;51.990;5.926;2023-04-01T12:25:55;10.90;99.90
47336;DHT22;33068;51.990;5.926;2023-04-01T12:28:32;10.90;99.90
47336;DHT22;33068;51.990;5.926;2023-04-01T12:31:19;11.00;99.90
47336;DHT22;33068;51.990;5.926;2023-04-01T12:34:09;10.90;99.90
47336;DHT22;33068;51.990;5.926;2023-04-01T12:36:53;11.00;99.90
47336;DHT22;33068;51.990;5.926;2023-04-01T12:39:40;11.00;99.90
47336;DHT22;33068;51.990;5.926;2023-04-01T12:42:18;11.10;99.90
47336;DHT22;33068;51.990;5.926;2023-04-01T12:45:07;11.10;99.90
47336;DHT22;33068;51.990;5.926;2023-04-01T12:47:55;11.20;99.90
47336;DHT22;33068;51.990;5.926;2023-04-01T12:50:57;11.30;99.90
47336;DHT22;33068;51.990;5.926;2023-04-01T12:54:02;11.40;99.90
47336;DHT22;33068;51.990;5.926;2023-04-01T12:56:41;11.40;99.90
47336;DHT22;33068;51.990;5.926;2023-04-01T12:59:34;11.40;99.90
47336;DHT22;33068;51.990;5.926;2023-04-01T13:02:12;11.50;99.90
47336;DHT22;33068;51.990;5.926;2023-04-01T13:07:55;11.70;99.90
47336;DHT22;33068;51.990;5.926;2023-04-01T13:13:49;11.60;99.90
47336;DHT22;33068;51.990;5.926;2023-04-01T13:16:24;11.70;99.90
47336;DHT22;33068;51.990;5.926;2023-04-01T13:18:57;11.80;99.90
47336;DHT22;33068;51.990;5.926;2023-04-01T13:21:32;11.80;99.90
47336;DHT22;33068;51.990;5.926;2023-04-01T13:24:07;11.90;99.90
47336;DHT22;33068;51.990;5.926;2023-04-01T13:26:37;12.10;99.90
47336;DHT22;33068;51.990;5.926;2023-04-01T13:29:12;12.10;99.90
47336;DHT22;33068;51.990;5.926;2023-04-01T13:31:55;12.30;99.90
47336;DHT22;33068;51.990;5.926;2023-04-01T13:34:39;12.40;99.90
47336;DHT22;33068;51.990;5.926;2023-04-01T13:37:18;12.40;99.90
47336;DHT22;33068;51.990;5.926;2023-04-01T13:40:01;12.40;99.90
47336;DHT22;33068;51.990;5.926;2023-04-01T13:42:33;12.40;99.90
47336;DHT22;33068;51.990;5.926;2023-04-01T13:45:12;12.20;99.90
47336;DHT22;33068;51.990;5.926;2023-04-01T13:48:23;12.00;99.90
47336;DHT22;33068;51.990;5.926;2023-04-01T13:51:18;11.80;99.90
47336;DHT22;33068;51.990;5.926;2023-04-01T13:57:14;11.70;99.90
47336;DHT22;33068;51.990;5.926;2023-04-01T14:00:10;11.60;99.90
47336;DHT22;33068;51.990;5.926;2023-04-01T14:02:53;11.60;99.90
47336;DHT22;33068;51.990;5.926;2023-04-01T14:05:32;11.60;99.90
47336;DHT22;33068;51.990;5.926;2023-04-01T14:08:14;11.60;99.90
47336;DHT22;33068;51.990;5.926;2023-04-01T14:10:47;11.60;99.90
47336;DHT22;33068;51.990;5.926;2023-04-01T14:13:30;11.60;99.90
47336;DHT22;33068;51.990;5.926;2023-04-01T14:16:21;11.60;99.90
47336;DHT22;33068;51.990;5.926;2023-04-01T14:19:03;11.70;99.90
47336;DHT22;33068;51.990;5.926;2023-04-01T14:21:39;11.70;99.90
47336;DHT22;33068;51.990;5.926;2023-04-01T14:24:24;11.80;99.90
47336;DHT22;33068;51.990;5.926;2023-04-01T14:27:16;11.80;99.90
47336;DHT22;33068;51.990;5.926;2023-04-01T14:29:59;11.80;99.90
47336;DHT22;33068;51.990;5.926;2023-04-01T14:32:39;11.80;99.90
47336;DHT22;33068;51.990;5.926;2023-04-01T14:35:25;11.90;99.90
47336;DHT22;33068;51.990;5.926;2023-04-01T14:38:02;11.80;99.90
47336;DHT22;33068;51.990;5.926;2023-04-01T14:40:44;11.70;99.90
47336;DHT22;33068;51.990;5.926;2023-04-01T14:43:33;11.70;99.90
47336;DHT22;33068;51.990;5.926;2023-04-01T14:46:32;11.60;99.90
47336;DHT22;33068;51.990;5.926;2023-04-01T14:49:02;11.60;99.90
47336;DHT22;33068;51.990;5.926;2023-04-01T14:51:33;11.50;99.90
47336;DHT22;33068;51.990;5.926;2023-04-01T14:54:06;11.50;99.90
47336;DHT22;33068;51.990;5.926;2023-04-01T14:56:37;11.50;99.90
47336;DHT22;33068;51.990;5.926;2023-04-01T14:59:09;11.60;99.90
47336;DHT22;33068;51.990;5.926;2023-04-01T15:01:45;11.60;99.90
47336;DHT22;33068;51.990;5.926;2023-04-01T15:04:41;11.60;99.90
47336;DHT22;33068;51.990;5.926;2023-04-01T15:07:48;11.60;99.90
47336;DHT22;33068;51.990;5.926;2023-04-01T15:10:31;11.60;99.90
47336;DHT22;33068;51.990;5.926;2023-04-01T15:13:08;11.60;99.90
47336;DHT22;33068;51.990;5.926;2023-04-01T15:15:50;11.60;99.90
47336;DHT22;33068;51.990;5.926;2023-04-01T15:18:32;11.70;99.90
47336;DHT22;33068;51.990;5.926;2023-04-01T15:21:23;11.80;99.90
47336;DHT22;33068;51.990;5.926;2023-04-01T15:24:06;11.80;99.90
47336;DHT22;33068;51.990;5.926;2023-04-01T15:29:50;11.90;99.90
47336;DHT22;33068;51.990;5.926;2023-04-01T15:32:25;12.00;99.90
47336;DHT22;33068;51.990;5.926;2023-04-01T15:35:00;11.90;99.90
47336;DHT22;33068;51.990;5.926;2023-04-01T15:37:37;11.90;99.90
47336;DHT22;33068;51.990;5.926;2023-04-01T15:40:17;11.70;99.90
47336;DHT22;33068;51.990;5.926;2023-04-01T15:42:59;11.80;99.90
47336;DHT22;33068;51.990;5.926;2023-04-01T15:45:41;11.70;99.90
47336;DHT22;33068;51.990;5.926;2023-04-01T15:48:24;11.60;99.90
47336;DHT22;33068;51.990;5.926;2023-04-01T15:51:06;11.60;99.90
47336;DHT22;33068;51.990;5.926;2023-04-01T15:57:08;11.60;99.90
47336;DHT22;33068;51.990;5.926;2023-04-01T16:00:02;11.50;99.90
47336;DHT22;33068;51.990;5.926;2023-04-01T16:02:44;11.50;99.90
47336;DHT22;33068;51.990;5.926;2023-04-01T16:05:26;11.50;99.90
47336;DHT22;33068;51.990;5.926;2023-04-01T16:08:17;11.40;99.90
47336;DHT22;33068;51.990;5.926;2023-04-01T16:10:59;11.40;99.90
47336;DHT22;33068;51.990;5.926;2023-04-01T16:13:41;11.40;99.90
47336;DHT22;33068;51.990;5.926;2023-04-01T16:16:20;11.40;99.90
47336;DHT22;33068;51.990;5.926;2023-04-01T16:19:22;11.30;99.90
47336;DHT22;33068;51.990;5.926;2023-04-01T16:21:53;11.30;99.90
47336;DHT22;33068;51.990;5.926;2023-04-01T16:24:32;11.30;99.90
47336;DHT22;33068;51.990;5.926;2023-04-01T16:27:04;11.20;99.90
47336;DHT22;33068;51.990;5.926;2023-04-01T16:29:38;11.40;99.90
47336;DHT22;33068;51.990;5.926;2023-04-01T16:32:34;11.30;99.90
47336;DHT22;33068;51.990;5.926;2023-04-01T16:35:30;11.30;99.90
47336;DHT22;33068;51.990;5.926;2023-04-01T16:38:09;11.30;99.90
47336;DHT22;33068;51.990;5.926;2023-04-01T16:40:44;11.10;99.90
47336;DHT22;33068;51.990;5.926;2023-04-01T16:43:21;11.20;99.90
47336;DHT22;33068;51.990;5.926;2023-04-01T16:45:57;11.00;99.90
47336;DHT22;33068;51.990;5.926;2023-04-01T16:48:42;10.90;99.90
47336;DHT22;33068;51.990;5.926;2023-04-01T16:51:15;10.90;99.90
47336;DHT22;33068;51.990;5.926;2023-04-01T16:53:47;10.90;99.90
47336;DHT22;33068;51.990;5.926;2023-04-01T16:56:21;10.80;99.90
47336;DHT22;33068;51.990;5.926;2023-04-01T16:58:59;10.80;99.90
47336;DHT22;33068;51.990;5.926;2023-04-01T17:01:33;10.70;99.90
47336;DHT22;33068;51.990;5.926;2023-04-01T17:04:10;10.70;99.90
47336;DHT22;33068;51.990;5.926;2023-04-01T17:06:43;10.60;99.90
47336;DHT22;33068;51.990;5.926;2023-04-01T17:09:28;10.60;99.90
47336;DHT22;33068;51.990;5.926;2023-04-01T17:12:06;10.50;99.90
47336;DHT22;33068;51.990;5.926;2023-04-01T17:14:42;10.40;99.90
47336;DHT22;33068;51.990;5.926;2023-04-01T17:17:26;10.40;99.90
47336;DHT22;33068;51.990;5.926;2023-04-01T17:20:11;10.50;99.90
47336;DHT22;33068;51.990;5.926;2023-04-01T17:22:47;10.30;99.90
47336;DHT22;33068;51.990;5.926;2023-04-01T17:25:29;10.20;99.90
47336;DHT22;33068;51.990;5.926;2023-04-01T17:28:07;10.20;99.90
47336;DHT22;33068;51.990;5.926;2023-04-01T17:30:39;10.30;99.90
47336;DHT22;33068;51.990;5.926;2023-04-01T17:33:35;10.10;99.90
47336;DHT22;33068;51.990;5.926;2023-04-01T17:36:06;10.00;99.90
47336;DHT22;33068;51.990;5.926;2023-04-01T17:38:54;10.10;99.90
47336;DHT22;33068;51.990;5.926;2023-04-01T17:41:32;9.90;99.90
47336;DHT22;33068;51.990;5.926;2023-04-01T17:44:15;9.80;99.90